createdAt,value
2023-01-19T00:03:18.041Z,18.83
2023-01-19T00:08:22.859Z,14.20
2023-01-19T00:13:27.865Z,15.52
2023-01-19T00:23:35.816Z,16.92
2023-01-19T00:28:39.232Z,13.60
2023-01-19T00:33:42.692Z,15.38
2023-01-19T00:38:47.515Z,14.25
2023-01-19T00:43:50.980Z,15.02
2023-01-19T00:48:54.269Z,14.18
2023-01-19T00:54:00.000Z,11.65
2023-01-19T00:59:03.528Z,13.48
2023-01-19T01:04:07.030Z,12.90
2023-01-19T01:09:13.094Z,12.40
2023-01-19T01:14:16.616Z,13.43
2023-01-19T01:19:20.558Z,14.38
2023-01-19T01:24:25.338Z,12.73
2023-01-19T01:29:28.895Z,10.98
2023-01-19T01:34:32.243Z,13.60
2023-01-19T01:39:37.123Z,14.02
2023-01-19T01:49:57.761Z,12.05
2023-01-19T01:55:06.962Z,13.63
2023-01-19T02:00:12.223Z,14.45
2023-01-19T02:05:21.231Z,13.60
2023-01-19T02:10:43.329Z,15.70
2023-01-19T02:15:46.826Z,11.43
2023-01-19T02:21:04.786Z,15.30
2023-01-19T02:26:12.054Z,14.65
2023-01-19T02:31:16.371Z,13.43
2023-01-19T02:36:26.097Z,13.18
2023-01-19T02:41:37.373Z,13.88
2023-01-19T02:46:41.203Z,11.30
2023-01-19T02:51:45.416Z,10.88
2023-01-19T02:57:15.657Z,12.35
2023-01-19T03:02:33.370Z,13.57
2023-01-19T03:07:50.685Z,13.80
2023-01-19T03:13:04.209Z,12.88
2023-01-19T03:18:10.944Z,12.30
2023-01-19T03:23:16.618Z,13.73
2023-01-19T03:28:24.305Z,14.43
2023-01-19T03:33:31.550Z,15.05
2023-01-19T03:38:38.117Z,14.88
2023-01-19T03:43:44.581Z,12.05
2023-01-19T03:48:49.802Z,12.63
2023-01-19T03:53:53.200Z,14.60
2023-01-19T03:58:57.941Z,14.07
2023-01-19T04:04:01.428Z,13.68
2023-01-19T04:09:05.038Z,15.23
2023-01-19T04:14:09.958Z,16.05
2023-01-19T04:19:13.608Z,14.77
2023-01-19T04:24:16.963Z,13.73
2023-01-19T04:29:21.844Z,14.73
2023-01-19T04:34:25.296Z,15.23
2023-01-19T04:39:28.800Z,15.63
2023-01-19T04:44:33.706Z,17.83
2023-01-19T04:54:41.258Z,14.77
2023-01-19T04:59:46.111Z,17.48
2023-01-19T05:09:52.985Z,15.00
2023-01-19T05:14:57.800Z,15.93
2023-01-19T05:20:01.129Z,13.20
2023-01-19T05:25:05.020Z,14.77
2023-01-19T05:30:11.457Z,15.70
2023-01-19T05:35:20.109Z,17.20
2023-01-19T05:40:28.898Z,17.67
2023-01-19T05:45:34.087Z,17.35
2023-01-19T05:50:37.426Z,15.55
2023-01-19T05:55:40.771Z,15.20
2023-01-19T06:00:45.505Z,18.30
2023-01-19T06:05:49.057Z,16.42
2023-01-19T06:10:52.540Z,17.23
2023-01-19T06:16:01.448Z,17.80
2023-01-19T06:21:07.548Z,16.55
2023-01-19T06:26:10.985Z,19.08
2023-01-19T06:31:16.002Z,15.82
2023-01-19T06:36:19.581Z,16.40
2023-01-19T06:41:22.895Z,18.48
2023-01-19T06:46:27.614Z,19.13
2023-01-19T06:51:33.233Z,21.20
2023-01-19T06:56:36.519Z,19.40
2023-01-19T07:01:41.587Z,21.95
2023-01-19T07:06:45.238Z,20.25
2023-01-19T07:11:49.960Z,22.85
2023-01-19T07:16:55.004Z,21.13
2023-01-19T07:21:58.773Z,21.38
2023-01-19T07:27:02.340Z,22.17
2023-01-19T07:32:07.681Z,21.23
2023-01-19T07:37:11.343Z,19.00
2023-01-19T07:42:14.733Z,19.48
2023-01-19T07:47:20.107Z,18.38
2023-01-19T07:52:23.597Z,18.33
2023-01-19T07:57:26.916Z,17.00
2023-01-19T08:02:32.022Z,18.10
2023-01-19T08:07:35.431Z,18.30
2023-01-19T08:12:38.760Z,19.50
2023-01-19T08:17:44.207Z,17.27
2023-01-19T08:22:48.949Z,18.13
2023-01-19T08:33:04.813Z,16.30
2023-01-19T08:38:09.771Z,20.95
2023-01-19T08:48:22.219Z,19.55
2023-01-19T08:53:25.768Z,16.73
2023-01-19T08:58:29.606Z,19.65
2023-01-19T09:03:34.476Z,17.15
2023-01-19T09:08:38.739Z,20.48
2023-01-19T09:13:42.776Z,20.13
2023-01-19T09:18:47.528Z,20.10
2023-01-19T09:23:50.941Z,22.40
2023-01-19T09:28:54.425Z,22.10
2023-01-19T09:33:59.205Z,23.23
2023-01-19T09:39:03.060Z,23.08
2023-01-19T09:44:09.676Z,17.92
2023-01-19T09:49:17.777Z,22.42
2023-01-19T09:54:25.520Z,21.38
2023-01-19T09:59:31.534Z,20.88
2023-01-19T10:04:41.411Z,18.70
2023-01-19T10:09:59.178Z,21.40
2023-01-19T10:15:12.560Z,20.77
2023-01-19T10:20:26.226Z,18.73
2023-01-19T10:25:29.977Z,20.02
2023-01-19T10:30:33.819Z,21.63
2023-01-19T10:35:39.129Z,24.83
2023-01-19T10:40:49.780Z,22.75
2023-01-19T10:45:53.147Z,20.73
2023-01-19T10:51:05.995Z,23.30
2023-01-19T10:56:18.687Z,23.27
2023-01-19T11:01:24.575Z,19.25
2023-01-19T11:06:31.287Z,27.15
2023-01-19T11:11:46.680Z,26.73
2023-01-19T11:16:53.193Z,22.95
2023-01-19T11:22:12.627Z,23.15
2023-01-19T11:27:18.563Z,24.50
2023-01-19T11:32:23.681Z,19.08
2023-01-19T11:37:31.734Z,22.60
2023-01-19T11:42:37.328Z,22.45
2023-01-19T11:47:44.260Z,24.77
2023-01-19T11:52:53.613Z,22.42
2023-01-19T11:57:57.579Z,25.80
2023-01-19T12:03:06.912Z,23.27
2023-01-19T12:08:16.941Z,26.80
2023-01-19T12:13:23.831Z,25.88
2023-01-19T12:18:32.968Z,29.63
2023-01-19T12:23:55.021Z,22.88
2023-01-19T12:29:01.677Z,25.48
2023-01-19T12:34:36.203Z,25.95
2023-01-19T12:39:50.385Z,27.88
2023-01-19T12:45:08.212Z,26.83
2023-01-19T12:50:19.299Z,26.98
2023-01-19T12:55:26.069Z,26.90
2023-01-19T13:00:33.557Z,28.45
2023-01-19T13:05:58.372Z,27.80
2023-01-19T13:11:24.355Z,31.50
2023-01-19T13:17:00.406Z,26.23
2023-01-19T13:23:04.952Z,29.50
2023-01-19T13:28:17.565Z,29.30
2023-01-19T13:33:23.664Z,27.17
2023-01-19T13:38:29.337Z,25.42
2023-01-19T13:43:38.698Z,26.10
2023-01-19T13:48:53.624Z,25.40
2023-01-19T13:53:58.232Z,25.17
2023-01-19T13:59:11.989Z,23.85
2023-01-19T14:04:30.743Z,22.98
2023-01-19T14:09:34.206Z,25.33
2023-01-19T14:14:39.861Z,23.08
2023-01-19T14:19:50.251Z,24.83
2023-01-19T14:24:53.796Z,26.77
2023-01-19T14:30:16.554Z,26.40
2023-01-19T14:35:26.201Z,24.08
2023-01-19T14:40:31.168Z,27.90
2023-01-19T14:50:51.013Z,26.25
2023-01-19T14:56:07.041Z,24.80
2023-01-19T15:01:12.048Z,28.15
2023-01-19T15:06:18.115Z,26.70
2023-01-19T15:11:24.973Z,27.00
2023-01-19T15:16:33.033Z,26.52
2023-01-19T15:21:36.481Z,25.85
2023-01-19T15:26:41.367Z,23.95
2023-01-19T15:36:49.349Z,23.90
2023-01-19T15:41:52.691Z,22.65
2023-01-19T15:46:57.969Z,24.15
2023-01-19T15:52:01.585Z,24.35
2023-01-19T15:57:05.156Z,22.30
2023-01-19T16:02:11.313Z,21.23
2023-01-19T16:07:14.858Z,20.48
2023-01-19T16:12:18.188Z,20.00
2023-01-19T16:17:23.168Z,19.80
2023-01-19T16:22:26.680Z,19.48
2023-01-19T16:27:30.580Z,18.85
2023-01-19T16:32:36.582Z,19.77
2023-01-19T16:37:40.144Z,17.83
2023-01-19T16:42:43.471Z,18.90
2023-01-19T16:47:50.819Z,17.75
2023-01-19T16:52:57.674Z,17.48
2023-01-19T16:58:01.161Z,17.55
2023-01-19T17:03:06.119Z,18.63
2023-01-19T17:08:09.727Z,19.45
2023-01-19T17:13:13.066Z,19.05
2023-01-19T17:18:17.907Z,18.15
2023-01-19T17:23:21.370Z,17.42
2023-01-19T17:28:25.084Z,18.83
2023-01-19T17:33:29.855Z,17.63
2023-01-19T17:38:33.445Z,15.82
2023-01-19T17:43:36.858Z,16.27
2023-01-19T17:48:41.900Z,16.70
2023-01-19T17:58:50.974Z,19.75
2023-01-19T18:03:56.318Z,16.13
2023-01-19T18:09:00.284Z,12.52
2023-01-19T18:14:03.700Z,13.73
2023-01-19T18:19:10.645Z,15.85
2023-01-19T18:24:14.095Z,14.15
2023-01-19T18:29:20.657Z,13.02
2023-01-19T18:34:25.388Z,16.95
2023-01-19T18:39:31.247Z,16.83
2023-01-19T18:44:34.567Z,17.20
2023-01-19T18:49:39.491Z,18.25
2023-01-19T18:59:49.023Z,20.77
2023-01-19T19:04:53.795Z,21.13
2023-01-19T19:09:57.234Z,25.10
2023-01-19T19:15:00.829Z,22.42
2023-01-19T19:20:05.993Z,25.05
2023-01-19T19:25:10.214Z,25.48
2023-01-19T19:30:15.968Z,25.25
2023-01-19T19:35:21.454Z,23.55
2023-01-19T19:40:25.239Z,23.15
2023-01-19T19:45:28.556Z,24.77
2023-01-19T19:50:33.433Z,26.45
2023-01-19T20:00:39.899Z,25.63
2023-01-19T20:05:45.047Z,26.20
2023-01-19T20:10:48.528Z,25.98
2023-01-19T20:15:52.715Z,27.92
2023-01-19T20:20:57.672Z,27.27
2023-01-19T20:26:05.668Z,26.55
2023-01-19T20:31:16.975Z,28.15
2023-01-19T20:36:24.446Z,29.50
2023-01-19T20:41:29.891Z,30.75
2023-01-19T20:46:33.226Z,28.20
2023-01-19T20:51:45.334Z,30.27
2023-01-19T20:56:49.009Z,27.40
2023-01-19T21:01:52.639Z,29.05
2023-01-19T21:06:57.480Z,24.63
2023-01-19T21:12:00.974Z,27.30
2023-01-19T21:17:04.326Z,25.20
2023-01-19T21:22:19.375Z,28.52
2023-01-19T21:32:27.526Z,29.48
2023-01-19T21:42:35.662Z,29.07
2023-01-19T21:47:39.053Z,29.85
2023-01-19T21:52:44.435Z,27.40
2023-01-19T21:57:47.763Z,33.58
2023-01-19T22:03:03.071Z,32.70
2023-01-19T22:08:09.778Z,33.78
2023-01-19T22:13:13.238Z,32.30
2023-01-19T22:18:16.669Z,32.38
2023-01-19T22:23:21.377Z,26.90
2023-01-19T22:28:24.856Z,35.67
2023-01-19T22:33:29.498Z,37.25
2023-01-19T22:38:34.201Z,36.33
2023-01-19T22:43:39.620Z,37.45
2023-01-19T22:53:47.944Z,37.22
2023-01-19T22:58:51.386Z,39.25
2023-01-19T23:03:55.347Z,40.13
2023-01-19T23:09:02.767Z,38.93
2023-01-19T23:14:07.563Z,36.20
2023-01-19T23:19:12.837Z,35.63
2023-01-19T23:24:17.960Z,39.28
2023-01-19T23:29:21.492Z,39.38
2023-01-19T23:34:24.947Z,34.53
2023-01-19T23:39:29.955Z,37.55
2023-01-19T23:44:35.238Z,34.30
2023-01-19T23:49:39.911Z,32.33
2023-01-19T23:54:45.025Z,34.60
2023-01-19T23:59:48.441Z,33.80
